createdAt,value
2023-03-12T00:01:39.959Z,-0.18
2023-03-12T00:04:02.502Z,-0.43
2023-03-12T00:06:23.951Z,-0.36
2023-03-12T00:08:45.456Z,-0.27
2023-03-12T00:11:12.557Z,-0.27
2023-03-12T00:13:34.344Z,-0.24
2023-03-12T00:15:55.810Z,-0.24
2023-03-12T00:18:17.837Z,-0.33
2023-03-12T00:20:39.253Z,-0.31
2023-03-12T00:23:00.777Z,-0.35
2023-03-12T00:25:22.248Z,-0.30
2023-03-12T00:27:43.741Z,-0.32
2023-03-12T00:30:06.142Z,-0.55
2023-03-12T00:32:27.616Z,-0.46
2023-03-12T00:34:53.572Z,-0.40
2023-03-12T00:37:15.028Z,-0.39
2023-03-12T00:39:37.110Z,-0.42
2023-03-12T00:41:58.532Z,-0.34
2023-03-12T00:44:20.136Z,-0.34
2023-03-12T00:46:41.663Z,-0.33
2023-03-12T00:49:03.113Z,-0.37
2023-03-12T00:51:24.616Z,-0.28
2023-03-12T00:53:46.251Z,-0.51
2023-03-12T00:56:08.020Z,-0.43
2023-03-12T00:58:29.541Z,-0.32
2023-03-12T01:00:51.041Z,-0.39
2023-03-12T01:03:13.012Z,-0.51
2023-03-12T01:05:37.755Z,-0.35
2023-03-12T01:07:59.345Z,-0.28
2023-03-12T01:10:21.909Z,-0.24
2023-03-12T01:12:43.516Z,-0.16
2023-03-12T01:15:05.584Z,-0.12
2023-03-12T01:17:27.083Z,-0.23
2023-03-12T01:19:48.570Z,-0.18
2023-03-12T01:22:10.105Z,-0.16
2023-03-12T01:24:31.673Z,-0.08
2023-03-12T01:26:53.172Z,-0.27
2023-03-12T01:29:14.641Z,-0.18
2023-03-12T01:31:36.221Z,-0.16
2023-03-12T01:33:57.769Z,-0.16
2023-03-12T01:36:24.861Z,-0.10
2023-03-12T01:38:46.971Z,-0.16
2023-03-12T01:41:08.413Z,-0.17
2023-03-12T01:43:33.774Z,-0.14
2023-03-12T01:46:16.467Z,-0.11
2023-03-12T01:48:45.125Z,-0.06
2023-03-12T01:51:09.084Z,-0.02
2023-03-12T01:53:31.604Z,-0.08
2023-03-12T01:55:53.069Z,0.04
2023-03-12T01:58:15.343Z,0.07
2023-03-12T02:00:36.767Z,0.13
2023-03-12T02:03:04.630Z,0.11
2023-03-12T02:05:53.042Z,0.06
2023-03-12T02:08:17.161Z,0.06
2023-03-12T02:10:38.843Z,0.00
2023-03-12T02:13:00.310Z,0.09
2023-03-12T02:15:22.157Z,0.16
2023-03-12T02:17:44.112Z,0.19
2023-03-12T02:20:11.827Z,0.18
2023-03-12T02:22:36.092Z,0.27
2023-03-12T02:25:04.512Z,0.27
2023-03-12T02:27:26.116Z,0.30
2023-03-12T02:29:47.626Z,0.32
2023-03-12T02:32:15.752Z,0.36
2023-03-12T02:34:37.271Z,0.41
2023-03-12T02:36:58.724Z,0.39
2023-03-12T02:39:20.615Z,0.44
2023-03-12T02:41:46.372Z,0.42
2023-03-12T02:44:23.133Z,0.48
2023-03-12T02:46:50.880Z,0.53
2023-03-12T02:49:13.352Z,0.49
2023-03-12T02:51:35.112Z,0.46
2023-03-12T02:53:56.616Z,0.49
2023-03-12T02:56:18.057Z,0.52
2023-03-12T02:58:39.512Z,0.56
2023-03-12T03:01:01.008Z,0.61
2023-03-12T03:03:22.538Z,0.66
2023-03-12T03:05:44.379Z,0.74
2023-03-12T03:08:06.576Z,0.76
2023-03-12T03:10:28.029Z,0.86
2023-03-12T03:12:50.097Z,0.90
2023-03-12T03:15:12.044Z,0.88
2023-03-12T03:17:33.495Z,0.87
2023-03-12T03:19:55.426Z,0.91
2023-03-12T03:22:17.081Z,0.97
2023-03-12T03:24:38.597Z,0.93
2023-03-12T03:27:00.088Z,0.91
2023-03-12T03:29:21.825Z,0.91
2023-03-12T03:31:43.432Z,0.93
2023-03-12T03:34:04.934Z,0.99
2023-03-12T03:36:26.736Z,1.00
2023-03-12T03:38:49.860Z,1.04
2023-03-12T03:41:11.290Z,1.05
2023-03-12T03:43:33.114Z,1.02
2023-03-12T03:45:59.111Z,1.06
2023-03-12T03:48:20.583Z,1.05
2023-03-12T03:50:42.070Z,1.10
2023-03-12T03:53:03.746Z,1.10
2023-03-12T03:55:25.794Z,1.07
2023-03-12T03:57:48.189Z,1.03
2023-03-12T04:00:13.115Z,1.00
2023-03-12T04:02:35.054Z,1.00
2023-03-12T04:04:59.911Z,1.06
2023-03-12T04:07:21.458Z,0.99
2023-03-12T04:09:43.526Z,1.02
2023-03-12T04:12:05.178Z,1.04
2023-03-12T04:14:26.634Z,1.07
2023-03-12T04:16:48.089Z,1.11
2023-03-12T04:19:09.603Z,1.12
2023-03-12T04:21:31.041Z,1.14
2023-03-12T04:23:52.530Z,1.10
2023-03-12T04:26:14.097Z,1.18
2023-03-12T04:28:36.297Z,1.14
2023-03-12T04:31:03.472Z,1.13
2023-03-12T04:33:26.155Z,1.19
2023-03-12T04:35:52.637Z,1.18
2023-03-12T04:38:14.120Z,1.12
2023-03-12T04:40:35.599Z,1.25
2023-03-12T04:42:57.053Z,1.21
2023-03-12T04:45:18.574Z,1.21
2023-03-12T04:47:40.040Z,1.23
2023-03-12T04:50:01.494Z,1.28
2023-03-12T04:52:23.022Z,1.25
2023-03-12T04:54:46.805Z,1.26
2023-03-12T04:57:09.803Z,1.25
2023-03-12T04:59:31.357Z,1.28
2023-03-12T05:01:52.932Z,1.33
2023-03-12T05:04:14.553Z,1.33
2023-03-12T05:06:36.099Z,1.21
2023-03-12T05:08:58.034Z,1.26
2023-03-12T05:11:20.357Z,1.26
2023-03-12T05:13:42.220Z,1.33
2023-03-12T05:16:04.062Z,1.31
2023-03-12T05:18:26.521Z,1.39
2023-03-12T05:20:57.248Z,1.36
2023-03-12T05:23:18.680Z,1.36
2023-03-12T05:25:41.129Z,1.21
2023-03-12T05:28:02.573Z,1.12
2023-03-12T05:30:24.065Z,1.19
2023-03-12T05:32:45.583Z,1.29
2023-03-12T05:35:07.419Z,1.33
2023-03-12T05:37:28.861Z,1.36
2023-03-12T05:39:50.379Z,1.31
2023-03-12T05:42:11.834Z,1.46
2023-03-12T05:44:35.428Z,1.36
2023-03-12T05:46:58.959Z,1.28
2023-03-12T05:49:21.416Z,1.26
2023-03-12T05:51:43.507Z,1.28
2023-03-12T05:54:05.097Z,1.19
2023-03-12T05:56:27.011Z,1.16
2023-03-12T05:58:49.978Z,1.20
2023-03-12T06:01:13.733Z,1.33
2023-03-12T06:03:35.287Z,1.36
2023-03-12T06:05:57.158Z,1.45
2023-03-12T06:08:18.649Z,1.56
2023-03-12T06:10:40.246Z,1.58
2023-03-12T06:13:01.688Z,1.72
2023-03-12T06:15:23.160Z,1.72
2023-03-12T06:17:44.761Z,1.69
2023-03-12T06:20:07.115Z,1.81
2023-03-12T06:22:29.539Z,1.91
2023-03-12T06:24:51.016Z,2.01
2023-03-12T06:27:12.725Z,2.08
2023-03-12T06:29:34.164Z,2.04
2023-03-12T06:31:56.101Z,2.09
2023-03-12T06:34:17.911Z,2.01
2023-03-12T06:36:39.448Z,2.10
2023-03-12T06:39:00.904Z,2.21
2023-03-12T06:41:22.396Z,2.23
2023-03-12T06:43:44.905Z,2.29
2023-03-12T06:46:08.642Z,2.39
2023-03-12T06:48:33.500Z,2.48
2023-03-12T06:50:55.401Z,2.54
2023-03-12T06:53:17.507Z,2.50
2023-03-12T06:55:39.194Z,2.66
2023-03-12T06:58:00.785Z,2.62
2023-03-12T07:00:22.528Z,2.59
2023-03-12T07:02:43.978Z,2.64
2023-03-12T07:05:05.929Z,2.87
2023-03-12T07:07:27.409Z,3.09
2023-03-12T07:09:48.837Z,3.24
2023-03-12T07:12:10.307Z,3.44
2023-03-12T07:14:31.768Z,3.61
2023-03-12T07:16:53.245Z,3.70
2023-03-12T07:19:14.860Z,3.63
2023-03-12T07:21:36.455Z,3.64
2023-03-12T07:23:58.195Z,3.59
2023-03-12T07:26:20.469Z,3.47
2023-03-12T07:28:41.938Z,3.83
2023-03-12T07:31:04.764Z,3.83
2023-03-12T07:33:26.435Z,3.75
2023-03-12T07:35:51.502Z,3.86
2023-03-12T07:38:13.883Z,3.90
2023-03-12T07:40:36.510Z,3.95
2023-03-12T07:42:59.020Z,4.01
2023-03-12T07:45:20.956Z,4.17
2023-03-12T07:47:42.603Z,4.26
2023-03-12T07:50:04.404Z,4.25
2023-03-12T07:52:26.264Z,4.62
2023-03-12T07:54:48.001Z,4.61
2023-03-12T07:57:09.671Z,4.84
2023-03-12T07:59:31.224Z,4.73
2023-03-12T08:01:52.775Z,4.66
2023-03-12T08:04:14.329Z,4.78
2023-03-12T08:06:35.935Z,4.85
2023-03-12T08:08:57.432Z,5.01
2023-03-12T08:11:19.202Z,5.29
2023-03-12T08:13:40.728Z,5.57
2023-03-12T08:16:02.194Z,5.32
2023-03-12T08:18:24.824Z,5.36
2023-03-12T08:20:50.077Z,5.37
2023-03-12T08:23:12.185Z,5.46
2023-03-12T08:25:33.629Z,5.52
2023-03-12T08:27:55.130Z,5.80
2023-03-12T08:30:16.838Z,5.81
2023-03-12T08:32:38.572Z,5.96
2023-03-12T08:35:00.165Z,5.80
2023-03-12T08:37:23.033Z,6.03
2023-03-12T08:39:44.563Z,5.70
2023-03-12T08:42:07.777Z,6.09
2023-03-12T08:44:29.721Z,6.08
2023-03-12T08:46:52.228Z,6.50
2023-03-12T08:49:14.073Z,6.27
2023-03-12T08:51:35.571Z,5.99
2023-03-12T08:53:57.399Z,5.77
2023-03-12T08:56:18.836Z,5.78
2023-03-12T08:58:40.372Z,5.85
2023-03-12T09:01:02.197Z,5.79
2023-03-12T09:03:24.358Z,5.89
2023-03-12T09:05:45.907Z,5.97
2023-03-12T09:08:08.451Z,6.15
2023-03-12T09:10:31.226Z,6.12
2023-03-12T09:12:52.845Z,6.29
2023-03-12T09:15:14.371Z,6.33
2023-03-12T09:17:35.980Z,6.32
2023-03-12T09:19:57.555Z,6.16
2023-03-12T09:22:19.022Z,5.96
2023-03-12T09:24:40.517Z,6.11
2023-03-12T09:27:02.556Z,6.19
2023-03-12T09:29:24.823Z,6.38
2023-03-12T09:31:46.265Z,6.38
2023-03-12T09:34:07.793Z,6.64
2023-03-12T09:36:29.233Z,6.65
2023-03-12T09:38:50.694Z,6.82
2023-03-12T09:41:25.288Z,7.09
2023-03-12T09:43:55.767Z,6.81
2023-03-12T09:46:26.956Z,6.38
2023-03-12T09:48:50.136Z,6.58
2023-03-12T09:51:28.687Z,6.62
2023-03-12T09:53:56.641Z,6.66
2023-03-12T09:56:20.497Z,6.55
2023-03-12T09:58:44.493Z,6.28
2023-03-12T10:01:12.020Z,6.55
2023-03-12T10:03:33.519Z,6.61
2023-03-12T10:06:01.477Z,6.31
2023-03-12T10:08:32.236Z,6.74
2023-03-12T10:10:58.927Z,6.71
2023-03-12T10:13:52.808Z,6.20
2023-03-12T10:16:18.769Z,6.23
2023-03-12T10:18:55.256Z,6.21
2023-03-12T10:21:42.334Z,6.48
2023-03-12T10:24:31.666Z,6.53
2023-03-12T10:26:57.320Z,6.57
2023-03-12T10:29:23.554Z,6.70
2023-03-12T10:32:00.383Z,6.52
2023-03-12T10:34:37.673Z,7.06
2023-03-12T10:37:03.425Z,7.05
2023-03-12T10:39:24.938Z,7.54
2023-03-12T10:41:48.394Z,7.48
2023-03-12T10:44:25.247Z,7.59
2023-03-12T10:47:07.134Z,8.11
2023-03-12T10:49:37.163Z,8.02
2023-03-12T10:52:16.312Z,7.76
2023-03-12T10:54:40.656Z,7.71
2023-03-12T10:57:02.608Z,7.37
2023-03-12T10:59:28.848Z,7.10
2023-03-12T11:01:52.603Z,6.81
2023-03-12T11:04:18.500Z,6.86
2023-03-12T11:06:40.092Z,6.63
2023-03-12T11:09:16.769Z,6.67
2023-03-12T11:11:38.899Z,6.69
2023-03-12T11:14:20.357Z,6.46
2023-03-12T11:16:42.223Z,6.43
2023-03-12T11:19:05.871Z,6.30
2023-03-12T11:21:29.041Z,6.48
2023-03-12T11:23:56.382Z,6.19
2023-03-12T11:26:20.840Z,6.11
2023-03-12T11:28:46.466Z,5.93
2023-03-12T11:31:37.232Z,6.06
2023-03-12T11:34:05.398Z,5.74
2023-03-12T11:36:41.940Z,5.41
2023-03-12T11:39:10.367Z,5.25
2023-03-12T11:41:59.137Z,5.28
2023-03-12T11:44:31.249Z,5.20
2023-03-12T11:47:06.376Z,5.42
2023-03-12T11:49:53.399Z,5.48
2023-03-12T11:52:23.066Z,5.55
2023-03-12T11:55:03.019Z,5.61
2023-03-12T11:57:35.111Z,5.74
2023-03-12T12:00:17.347Z,5.85
2023-03-12T12:03:23.819Z,6.05
2023-03-12T12:06:32.042Z,5.95
2023-03-12T12:09:25.442Z,5.80
2023-03-12T12:12:05.666Z,6.00
2023-03-12T12:14:42.085Z,5.93
2023-03-12T12:17:27.880Z,6.02
2023-03-12T12:20:09.345Z,6.25
2023-03-12T12:22:49.596Z,6.47
2023-03-12T12:25:17.163Z,6.36
2023-03-12T12:28:05.529Z,6.43
2023-03-12T12:30:52.315Z,6.42
2023-03-12T12:33:23.931Z,6.52
2023-03-12T12:35:45.792Z,6.58
2023-03-12T12:38:30.394Z,6.50
2023-03-12T12:40:55.557Z,6.56
2023-03-12T12:43:28.592Z,6.77
2023-03-12T12:45:52.955Z,7.03
2023-03-12T12:48:27.195Z,6.64
2023-03-12T12:50:51.419Z,6.87
2023-03-12T12:53:36.080Z,6.90
2023-03-12T12:56:16.337Z,6.95
2023-03-12T12:58:59.662Z,6.99
2023-03-12T13:01:21.505Z,6.87
2023-03-12T13:03:44.470Z,7.16
2023-03-12T13:06:07.380Z,7.13
2023-03-12T13:08:33.637Z,7.23
2023-03-12T13:11:02.460Z,7.58
2023-03-12T13:13:27.754Z,7.62
2023-03-12T13:15:49.790Z,7.43
2023-03-12T13:18:24.456Z,7.59
2023-03-12T13:20:51.783Z,7.55
2023-03-12T13:23:47.390Z,7.42
2023-03-12T13:26:23.374Z,7.11
2023-03-12T13:28:56.814Z,6.76
2023-03-12T13:31:21.197Z,6.83
2023-03-12T13:33:46.226Z,6.67
2023-03-12T13:36:23.591Z,6.67
2023-03-12T13:38:59.127Z,6.81
2023-03-12T13:41:38.268Z,7.34
2023-03-12T13:44:00.210Z,7.23
2023-03-12T13:46:34.101Z,7.19
2023-03-12T13:49:03.421Z,6.95
2023-03-12T13:51:25.952Z,7.07
2023-03-12T13:53:50.641Z,7.06
2023-03-12T13:56:16.866Z,7.23
2023-03-12T13:59:09.874Z,7.23
2023-03-12T14:01:36.831Z,7.61
2023-03-12T14:04:10.774Z,7.63
2023-03-12T14:06:47.837Z,7.49
2023-03-12T14:09:24.500Z,7.31
2023-03-12T14:12:06.235Z,7.49
2023-03-12T14:15:01.812Z,7.62
2023-03-12T14:17:25.546Z,7.54
2023-03-12T14:19:52.556Z,7.66
2023-03-12T14:22:14.615Z,7.67
2023-03-12T14:24:54.039Z,7.75
2023-03-12T14:27:21.407Z,7.78
2023-03-12T14:29:52.111Z,7.86
2023-03-12T14:32:21.907Z,7.65
2023-03-12T14:34:49.884Z,7.66
2023-03-12T14:37:16.390Z,7.83
2023-03-12T14:39:54.854Z,7.98
2023-03-12T14:42:36.598Z,8.08
2023-03-12T14:45:12.892Z,8.43
2023-03-12T14:47:41.792Z,8.13
2023-03-12T14:50:03.968Z,8.08
2023-03-12T14:52:30.593Z,8.15
2023-03-12T14:55:04.954Z,7.89
2023-03-12T14:57:26.996Z,8.00
2023-03-12T14:59:57.584Z,8.16
2023-03-12T15:02:20.395Z,8.06
2023-03-12T15:04:42.499Z,7.85
2023-03-12T15:07:06.564Z,7.65
2023-03-12T15:09:30.487Z,7.67
2023-03-12T15:12:04.087Z,7.67
2023-03-12T15:14:28.505Z,7.76
2023-03-12T15:16:50.783Z,7.77
2023-03-12T15:19:14.751Z,7.90
2023-03-12T15:21:36.399Z,7.95
2023-03-12T15:23:58.732Z,7.85
2023-03-12T15:26:20.125Z,7.59
2023-03-12T15:28:42.091Z,7.77
2023-03-12T15:31:06.746Z,7.79
2023-03-12T15:33:28.325Z,7.73
2023-03-12T15:36:02.010Z,7.69
2023-03-12T15:38:24.182Z,7.73
2023-03-12T15:40:51.317Z,7.65
2023-03-12T15:43:19.169Z,7.49
2023-03-12T15:45:40.799Z,7.64
2023-03-12T15:48:04.422Z,7.62
2023-03-12T15:50:41.845Z,7.78
2023-03-12T15:53:12.243Z,7.72
2023-03-12T15:55:35.594Z,7.71
2023-03-12T15:57:58.846Z,7.60
2023-03-12T16:00:20.654Z,7.68
2023-03-12T16:03:04.048Z,7.72
2023-03-12T16:05:33.239Z,7.74
2023-03-12T16:07:54.963Z,7.80
2023-03-12T16:10:19.935Z,8.00
2023-03-12T16:12:43.173Z,8.27
2023-03-12T16:15:05.044Z,8.33
2023-03-12T16:17:26.491Z,8.43
2023-03-12T16:19:47.934Z,8.57
2023-03-12T16:22:09.385Z,8.74
2023-03-12T16:24:31.935Z,8.51
2023-03-12T16:26:58.703Z,8.50
2023-03-12T16:29:21.298Z,8.57
2023-03-12T16:31:42.947Z,8.65
2023-03-12T16:34:04.472Z,8.69
2023-03-12T16:36:26.774Z,8.86
2023-03-12T16:38:48.315Z,9.02
2023-03-12T16:41:19.628Z,9.04
2023-03-12T16:43:43.076Z,9.06
2023-03-12T16:46:08.388Z,9.09
2023-03-12T16:48:29.925Z,9.13
2023-03-12T16:50:54.181Z,9.03
2023-03-12T16:53:16.300Z,8.99
2023-03-12T16:56:06.149Z,9.10
2023-03-12T16:58:29.436Z,8.96
2023-03-12T17:00:53.025Z,9.05
2023-03-12T17:03:43.643Z,8.70
2023-03-12T17:06:07.477Z,8.72
2023-03-12T17:08:29.057Z,8.73
2023-03-12T17:10:50.485Z,8.47
2023-03-12T17:13:20.604Z,8.39
2023-03-12T17:15:42.094Z,8.45
2023-03-12T17:18:04.477Z,8.36
2023-03-12T17:20:25.934Z,8.29
2023-03-12T17:22:48.162Z,8.16
2023-03-12T17:25:25.083Z,8.12
2023-03-12T17:27:46.626Z,8.03
2023-03-12T17:30:08.865Z,7.94
2023-03-12T17:32:30.643Z,7.94
2023-03-12T17:34:56.968Z,7.86
2023-03-12T17:37:18.422Z,7.94
2023-03-12T17:39:39.842Z,7.94
2023-03-12T17:42:01.382Z,7.94
2023-03-12T17:44:22.893Z,7.92
2023-03-12T17:46:56.538Z,7.86
2023-03-12T17:49:21.065Z,7.95
2023-03-12T17:51:42.551Z,7.96
2023-03-12T17:54:04.562Z,7.97
2023-03-12T17:56:26.009Z,7.92
2023-03-12T17:58:47.665Z,7.88
2023-03-12T18:01:09.108Z,7.92
2023-03-12T18:03:30.630Z,8.03
2023-03-12T18:05:52.086Z,8.10
2023-03-12T18:08:15.165Z,8.06
2023-03-12T18:10:40.568Z,8.13
2023-03-12T18:13:02.017Z,8.15
2023-03-12T18:15:23.497Z,8.31
2023-03-12T18:17:45.083Z,8.25
2023-03-12T18:20:09.864Z,8.23
2023-03-12T18:22:31.328Z,8.31
2023-03-12T18:24:52.810Z,8.30
2023-03-12T18:27:14.283Z,8.32
2023-03-12T18:29:36.889Z,8.22
2023-03-12T18:31:58.334Z,8.17
2023-03-12T18:34:20.779Z,8.21
2023-03-12T18:36:42.198Z,8.25
2023-03-12T18:39:05.034Z,8.32
2023-03-12T18:41:30.404Z,8.45
2023-03-12T18:43:53.874Z,8.44
2023-03-12T18:46:15.570Z,8.51
2023-03-12T18:48:37.066Z,8.46
2023-03-12T18:50:58.524Z,8.46
2023-03-12T18:53:20.107Z,8.57
2023-03-12T18:55:41.587Z,8.66
2023-03-12T18:58:03.059Z,8.72
2023-03-12T19:00:24.501Z,8.72
2023-03-12T19:02:47.961Z,8.78
2023-03-12T19:05:11.058Z,8.69
2023-03-12T19:07:33.050Z,8.80
2023-03-12T19:09:54.512Z,8.74
2023-03-12T19:12:16.040Z,8.79
2023-03-12T19:14:37.651Z,8.84
2023-03-12T19:16:59.136Z,8.81
2023-03-12T19:19:21.653Z,8.87
2023-03-12T19:21:43.098Z,8.81
2023-03-12T19:24:04.826Z,8.90
2023-03-12T19:26:26.304Z,8.86
2023-03-12T19:28:47.841Z,8.89
2023-03-12T19:31:12.069Z,8.75
2023-03-12T19:33:33.584Z,8.81
2023-03-12T19:35:55.131Z,8.80
2023-03-12T19:38:17.734Z,8.79
2023-03-12T19:40:39.253Z,8.90
2023-03-12T19:43:01.806Z,8.90
2023-03-12T19:45:23.268Z,8.93
2023-03-12T19:47:44.763Z,8.90
2023-03-12T19:50:08.142Z,8.84
2023-03-12T19:52:30.031Z,8.88
2023-03-12T19:55:03.371Z,8.92
2023-03-12T19:57:25.785Z,8.98
2023-03-12T19:59:47.271Z,8.94
2023-03-12T20:02:12.756Z,9.04
2023-03-12T20:04:34.231Z,8.98
2023-03-12T20:06:55.650Z,9.00
2023-03-12T20:09:17.124Z,9.06
2023-03-12T20:11:38.679Z,9.08
2023-03-12T20:14:00.205Z,8.95
2023-03-12T20:16:21.804Z,9.00
2023-03-12T20:18:43.432Z,8.93
2023-03-12T20:21:05.088Z,9.00
2023-03-12T20:23:26.614Z,9.00
2023-03-12T20:25:50.143Z,9.01
2023-03-12T20:28:11.589Z,9.01
2023-03-12T20:30:35.924Z,9.05
2023-03-12T20:32:57.458Z,9.07
2023-03-12T20:35:19.001Z,9.04
2023-03-12T20:37:40.525Z,9.10
2023-03-12T20:40:01.959Z,9.08
2023-03-12T20:42:23.494Z,9.13
2023-03-12T20:44:44.918Z,9.23
2023-03-12T20:47:06.375Z,9.29
2023-03-12T20:49:27.843Z,9.26
2023-03-12T20:51:49.321Z,9.20
2023-03-12T20:54:11.037Z,9.28
2023-03-12T20:56:32.470Z,9.31
2023-03-12T20:58:54.022Z,9.28
2023-03-12T21:01:15.589Z,9.23
2023-03-12T21:03:37.064Z,9.23
2023-03-12T21:06:01.221Z,9.28
2023-03-12T21:08:23.566Z,9.16
2023-03-12T21:10:44.985Z,9.18
2023-03-12T21:13:06.432Z,9.03
2023-03-12T21:15:27.910Z,9.09
2023-03-12T21:17:49.347Z,9.02
2023-03-12T21:20:13.466Z,9.16
2023-03-12T21:22:35.203Z,9.04
2023-03-12T21:24:56.716Z,9.03
2023-03-12T21:27:18.233Z,9.13
2023-03-12T21:29:39.676Z,9.11
2023-03-12T21:32:01.167Z,9.08
2023-03-12T21:34:23.374Z,9.00
2023-03-12T21:36:44.820Z,9.07
2023-03-12T21:39:06.267Z,8.99
2023-03-12T21:41:27.694Z,9.14
2023-03-12T21:43:49.186Z,9.08
2023-03-12T21:46:13.772Z,9.01
2023-03-12T21:48:36.266Z,9.05
2023-03-12T21:51:02.456Z,9.13
2023-03-12T21:53:24.285Z,9.20
2023-03-12T21:55:54.890Z,9.15
2023-03-12T21:58:16.372Z,9.23
2023-03-12T22:00:37.805Z,9.35
2023-03-12T22:02:59.244Z,9.24
2023-03-12T22:05:20.742Z,9.23
2023-03-12T22:07:42.205Z,9.19
2023-03-12T22:10:07.130Z,9.13
2023-03-12T22:12:28.629Z,9.17
2023-03-12T22:14:50.090Z,9.21
2023-03-12T22:17:11.481Z,9.17
2023-03-12T22:19:32.912Z,9.25
2023-03-12T22:21:54.363Z,9.38
2023-03-12T22:24:15.834Z,9.38
2023-03-12T22:26:37.309Z,9.25
2023-03-12T22:28:58.909Z,9.22
2023-03-12T22:31:22.091Z,9.33
2023-03-12T22:33:44.693Z,9.20
2023-03-12T22:36:08.489Z,9.22
2023-03-12T22:38:29.965Z,9.29
2023-03-12T22:40:53.707Z,9.25
2023-03-12T22:43:16.878Z,9.32
2023-03-12T22:45:38.302Z,9.37
2023-03-12T22:48:00.275Z,9.48
2023-03-12T22:50:23.295Z,9.59
2023-03-12T22:52:44.734Z,9.61
2023-03-12T22:55:06.606Z,9.50
2023-03-12T22:57:28.064Z,9.51
2023-03-12T22:59:49.492Z,9.39
2023-03-12T23:02:11.117Z,9.37
2023-03-12T23:04:32.663Z,9.38
2023-03-12T23:07:01.606Z,9.44
2023-03-12T23:09:33.038Z,9.34
2023-03-12T23:11:54.469Z,9.60
2023-03-12T23:14:15.957Z,9.57
2023-03-12T23:16:37.423Z,9.52
2023-03-12T23:19:00.013Z,9.62
2023-03-12T23:21:23.294Z,9.66
2023-03-12T23:23:45.285Z,9.67
2023-03-12T23:26:06.799Z,9.58
2023-03-12T23:28:29.840Z,9.51
2023-03-12T23:30:53.947Z,9.58
2023-03-12T23:33:15.385Z,9.45
2023-03-12T23:35:36.881Z,9.55
2023-03-12T23:37:59.171Z,9.63
2023-03-12T23:40:20.609Z,9.80
2023-03-12T23:42:42.048Z,9.85
2023-03-12T23:45:03.987Z,9.70
2023-03-12T23:47:25.415Z,9.66
2023-03-12T23:49:46.844Z,9.78
2023-03-12T23:52:08.304Z,9.82
2023-03-12T23:54:29.893Z,9.82
2023-03-12T23:56:51.350Z,9.85
2023-03-12T23:59:12.814Z,9.92
